createdAt,value
2022-10-05T00:01:36.132Z,7.85
2022-10-05T00:04:23.809Z,6.40
2022-10-05T00:07:16.093Z,6.78
2022-10-05T00:09:46.163Z,7.22
2022-10-05T00:12:23.760Z,7.78
2022-10-05T00:15:02.651Z,8.30
2022-10-05T00:17:32.569Z,10.02
2022-10-05T00:20:00.200Z,11.75
2022-10-05T00:22:33.612Z,9.60
2022-10-05T00:25:10.690Z,10.73
2022-10-05T00:27:39.053Z,8.80
2022-10-05T00:30:21.619Z,10.05
2022-10-05T00:32:49.142Z,11.70
2022-10-05T00:35:19.431Z,6.30
2022-10-05T00:37:54.616Z,11.15
2022-10-05T00:40:33.784Z,8.80
2022-10-05T00:43:40.636Z,9.65
2022-10-05T00:46:48.031Z,9.93
2022-10-05T00:49:26.542Z,11.63
2022-10-05T00:52:13.616Z,9.75
2022-10-05T00:55:01.133Z,8.32
2022-10-05T00:57:28.191Z,8.25
2022-10-05T01:00:14.359Z,9.32
2022-10-05T01:03:30.331Z,9.70
2022-10-05T01:06:26.134Z,9.05
2022-10-05T01:09:47.212Z,8.68
2022-10-05T01:12:54.681Z,9.30
2022-10-05T01:15:37.168Z,9.13
2022-10-05T01:18:26.406Z,7.72
2022-10-05T01:21:26.517Z,8.63
2022-10-05T01:24:15.548Z,9.23
2022-10-05T01:27:35.382Z,7.20
2022-10-05T01:30:15.945Z,9.27
2022-10-05T01:32:57.842Z,7.28
2022-10-05T01:35:46.627Z,9.68
2022-10-05T01:38:45.846Z,9.20
2022-10-05T01:41:20.591Z,11.07
2022-10-05T01:44:01.842Z,6.25
2022-10-05T01:47:03.388Z,6.30
2022-10-05T01:49:48.023Z,7.60
2022-10-05T01:53:05.686Z,7.55
2022-10-05T01:55:55.166Z,6.82
2022-10-05T01:58:40.458Z,7.28
2022-10-05T02:01:59.790Z,8.77
2022-10-05T02:05:03.320Z,7.65
2022-10-05T02:07:44.866Z,9.85
2022-10-05T02:10:59.692Z,7.32
2022-10-05T02:13:45.076Z,6.45
2022-10-05T02:16:38.377Z,9.80
2022-10-05T02:19:16.330Z,8.18
2022-10-05T02:21:58.862Z,8.70
2022-10-05T02:24:45.181Z,6.80
2022-10-05T02:27:33.969Z,9.68
2022-10-05T02:30:16.329Z,6.97
2022-10-05T02:33:12.074Z,6.70
2022-10-05T02:35:51.729Z,8.07
2022-10-05T02:39:06.461Z,9.52
2022-10-05T02:42:04.037Z,8.25
2022-10-05T02:45:14.428Z,6.22
2022-10-05T02:47:58.591Z,8.02
2022-10-05T02:50:39.453Z,7.35
2022-10-05T02:53:32.053Z,7.70
2022-10-05T02:56:26.507Z,7.45
2022-10-05T02:59:28.702Z,7.88
2022-10-05T03:02:38.885Z,6.30
2022-10-05T03:05:48.244Z,7.82
2022-10-05T03:08:40.679Z,9.80
2022-10-05T03:11:28.870Z,7.80
2022-10-05T03:14:11.830Z,9.27
2022-10-05T03:17:07.338Z,7.93
2022-10-05T03:20:13.106Z,6.80
2022-10-05T03:23:06.521Z,7.75
2022-10-05T03:26:07.293Z,8.65
2022-10-05T03:29:01.407Z,8.35
2022-10-05T03:32:02.529Z,6.47
2022-10-05T03:34:50.229Z,7.78
2022-10-05T03:37:46.872Z,13.10
2022-10-05T03:40:41.870Z,10.48
2022-10-05T03:44:02.591Z,9.77
2022-10-05T03:47:02.874Z,11.55
2022-10-05T03:49:42.121Z,10.73
2022-10-05T03:52:30.788Z,8.32
2022-10-05T03:55:24.610Z,8.10
2022-10-05T03:58:00.432Z,9.15
2022-10-05T04:00:32.177Z,8.70
2022-10-05T04:03:45.539Z,7.28
2022-10-05T04:06:35.175Z,8.57
2022-10-05T04:09:25.605Z,9.38
2022-10-05T04:12:43.675Z,8.48
2022-10-05T04:15:50.902Z,11.95
2022-10-05T04:18:45.995Z,10.38
2022-10-05T04:21:46.634Z,10.00
2022-10-05T04:24:36.228Z,12.07
2022-10-05T04:27:23.328Z,9.65
2022-10-05T04:30:06.629Z,12.75
2022-10-05T04:32:52.394Z,12.20
2022-10-05T04:36:05.952Z,8.98
2022-10-05T04:39:07.000Z,11.55
2022-10-05T04:42:00.683Z,11.35
2022-10-05T04:45:12.055Z,12.73
2022-10-05T04:48:13.252Z,10.45
2022-10-05T04:51:05.226Z,12.13
2022-10-05T04:54:16.039Z,9.68
2022-10-05T04:57:05.094Z,7.38
2022-10-05T04:59:45.176Z,8.77
2022-10-05T05:02:33.087Z,7.20
2022-10-05T05:05:32.284Z,8.48
2022-10-05T05:08:36.982Z,12.68
2022-10-05T05:11:23.776Z,7.85
2022-10-05T05:14:35.835Z,7.78
2022-10-05T05:17:17.252Z,7.15
2022-10-05T05:20:41.362Z,7.57
2022-10-05T05:23:48.049Z,11.77
2022-10-05T05:27:17.721Z,8.07
2022-10-05T05:30:20.639Z,9.35
2022-10-05T05:33:27.397Z,7.50
2022-10-05T05:43:16.661Z,8.20
2022-10-05T05:46:19.356Z,7.85
2022-10-05T05:49:51.853Z,6.20
2022-10-05T05:52:53.633Z,8.13
2022-10-05T05:56:21.476Z,8.57
2022-10-05T06:03:14.528Z,9.82
2022-10-05T06:09:26.684Z,6.70
2022-10-05T06:12:22.489Z,6.43
2022-10-05T06:15:32.649Z,11.52
2022-10-05T06:18:33.528Z,7.57
2022-10-05T06:21:48.781Z,10.55
2022-10-05T06:25:15.293Z,7.70
2022-10-05T06:28:32.921Z,8.63
2022-10-05T06:32:04.843Z,9.73
2022-10-05T06:35:24.372Z,9.27
2022-10-05T06:38:34.427Z,14.68
2022-10-05T06:45:31.600Z,13.57
2022-10-05T06:48:48.325Z,12.73
2022-10-05T06:51:45.758Z,11.88
2022-10-05T06:55:01.611Z,10.95
2022-10-05T06:58:37.135Z,12.93
2022-10-05T07:02:08.186Z,8.20
2022-10-05T07:05:25.437Z,13.15
2022-10-05T07:08:02.819Z,11.52
2022-10-05T07:10:54.100Z,8.80
2022-10-05T07:13:55.401Z,10.18
2022-10-05T07:16:36.315Z,11.48
2022-10-05T07:19:44.923Z,10.80
2022-10-05T07:23:13.364Z,14.90
2022-10-05T07:27:02.599Z,8.90
2022-10-05T07:29:54.382Z,10.10
2022-10-05T07:32:50.894Z,12.98
2022-10-05T07:36:14.791Z,12.18
2022-10-05T07:39:23.540Z,10.38
2022-10-05T07:42:19.599Z,12.35
2022-10-05T07:45:12.006Z,11.57
2022-10-05T07:48:33.427Z,8.75
2022-10-05T07:51:16.108Z,11.93
2022-10-05T07:54:18.807Z,11.48
2022-10-05T07:56:57.807Z,11.30
2022-10-05T07:59:39.686Z,14.15
2022-10-05T08:02:59.147Z,12.40
2022-10-05T08:05:41.271Z,11.27
2022-10-05T08:08:18.194Z,11.23
2022-10-05T08:11:19.027Z,7.82
2022-10-05T08:14:38.034Z,8.65
2022-10-05T08:17:35.404Z,9.50
2022-10-05T08:20:36.674Z,9.80
2022-10-05T08:23:39.500Z,9.68
2022-10-05T08:27:18.265Z,8.48
2022-10-05T08:30:16.500Z,7.18
2022-10-05T08:36:19.090Z,6.75
2022-10-05T08:38:52.309Z,10.52
2022-10-05T08:42:18.128Z,9.85
2022-10-05T08:45:24.703Z,7.50
2022-10-05T08:48:21.148Z,8.02
2022-10-05T08:51:45.965Z,8.93
2022-10-05T08:54:46.710Z,9.70
2022-10-05T08:57:55.645Z,8.73
2022-10-05T09:01:00.582Z,10.00
2022-10-05T09:04:03.779Z,6.53
2022-10-05T09:07:02.686Z,9.23
2022-10-05T09:10:12.899Z,9.27
2022-10-05T09:13:28.334Z,5.78
2022-10-05T09:16:55.121Z,6.75
2022-10-05T09:20:20.880Z,13.30
2022-10-05T09:23:16.313Z,6.05
2022-10-05T09:26:27.504Z,7.90
2022-10-05T09:29:40.974Z,6.70
2022-10-05T09:32:23.164Z,6.70
2022-10-05T09:35:29.857Z,8.05
2022-10-05T09:38:43.714Z,6.75
2022-10-05T09:41:54.335Z,7.10
2022-10-05T09:44:50.122Z,6.90
2022-10-05T09:47:29.135Z,6.63
2022-10-05T09:50:52.093Z,6.55
2022-10-05T09:53:46.811Z,6.15
2022-10-05T09:56:53.868Z,7.20
2022-10-05T10:00:11.491Z,7.78
2022-10-05T10:03:09.903Z,5.05
2022-10-05T10:06:13.035Z,6.63
2022-10-05T10:09:37.858Z,5.75
2022-10-05T10:13:08.749Z,5.78
2022-10-05T10:16:07.593Z,5.78
2022-10-05T10:19:25.611Z,5.30
2022-10-05T10:22:42.825Z,6.50
2022-10-05T10:25:38.101Z,3.92
2022-10-05T10:28:43.358Z,5.72
2022-10-05T10:32:03.265Z,7.22
2022-10-05T10:34:40.284Z,6.90
2022-10-05T10:37:29.989Z,3.85
2022-10-05T10:40:55.366Z,4.32
2022-10-05T10:44:04.741Z,7.80
2022-10-05T10:47:25.037Z,10.25
2022-10-05T10:50:25.974Z,5.97
2022-10-05T10:53:40.152Z,5.53
2022-10-05T10:56:48.387Z,11.70
2022-10-05T10:59:37.073Z,7.50
2022-10-05T11:02:39.652Z,4.93
2022-10-05T11:05:47.999Z,5.28
2022-10-05T11:09:04.687Z,7.15
2022-10-05T11:12:04.579Z,5.13
2022-10-05T11:15:00.338Z,6.05
2022-10-05T11:18:21.731Z,5.40
2022-10-05T11:21:38.886Z,5.80
2022-10-05T11:24:45.976Z,6.75
2022-10-05T11:27:44.464Z,9.05
2022-10-05T11:31:17.837Z,6.90
2022-10-05T11:34:20.637Z,5.20
2022-10-05T11:37:35.312Z,6.22
2022-10-05T11:41:08.840Z,5.95
2022-10-05T11:44:19.470Z,6.93
2022-10-05T11:47:51.097Z,7.55
2022-10-05T11:51:16.081Z,7.80
2022-10-05T11:54:29.524Z,4.70
2022-10-05T11:57:41.430Z,6.97
2022-10-05T12:00:45.241Z,4.90
2022-10-05T12:03:45.641Z,5.78
2022-10-05T12:06:53.760Z,5.22
2022-10-05T12:10:05.951Z,6.75
2022-10-05T12:13:10.034Z,4.57
2022-10-05T12:16:00.208Z,4.80
2022-10-05T12:19:00.889Z,7.65
2022-10-05T12:21:42.488Z,5.72
2022-10-05T12:24:43.176Z,5.20
2022-10-05T12:27:30.054Z,5.80
2022-10-05T12:30:29.685Z,7.20
2022-10-05T12:33:26.117Z,5.60
2022-10-05T12:37:05.238Z,5.72
2022-10-05T12:39:49.141Z,6.28
2022-10-05T12:42:51.574Z,7.53
2022-10-05T12:46:19.652Z,7.90
2022-10-05T12:49:30.227Z,5.90
2022-10-05T12:52:06.096Z,5.82
2022-10-05T12:55:02.341Z,4.63
2022-10-05T12:57:56.796Z,7.82
2022-10-05T13:00:38.243Z,6.28
2022-10-05T13:03:33.455Z,6.15
2022-10-05T13:06:08.101Z,6.20
2022-10-05T13:09:35.512Z,10.02
2022-10-05T13:12:27.145Z,6.68
2022-10-05T13:15:20.183Z,5.68
2022-10-05T13:18:18.260Z,4.95
2022-10-05T13:20:59.816Z,4.43
2022-10-05T13:24:02.472Z,8.95
2022-10-05T13:26:41.501Z,5.50
2022-10-05T13:31:51.063Z,5.75
2022-10-05T13:34:45.883Z,5.60
2022-10-05T13:37:35.590Z,6.90
2022-10-05T13:40:29.605Z,6.00
2022-10-05T13:43:26.295Z,7.20
2022-10-05T13:46:26.578Z,5.15
2022-10-05T13:49:30.411Z,5.10
2022-10-05T13:52:28.345Z,5.32
2022-10-05T13:55:18.678Z,5.32
2022-10-05T13:57:55.355Z,6.65
2022-10-05T14:00:27.091Z,4.50
2022-10-05T14:02:58.010Z,3.85
2022-10-05T14:06:02.293Z,4.20
2022-10-05T14:08:35.697Z,4.75
2022-10-05T14:11:40.390Z,5.45
2022-10-05T14:14:10.549Z,6.63
2022-10-05T14:16:53.297Z,6.20
2022-10-05T14:19:40.874Z,4.93
2022-10-05T14:22:24.796Z,4.43
2022-10-05T14:25:12.969Z,5.22
2022-10-05T14:28:44.114Z,5.25
2022-10-05T14:31:37.135Z,5.38
2022-10-05T14:34:59.140Z,4.97
2022-10-05T14:37:43.455Z,9.02
2022-10-05T14:40:38.386Z,5.03
2022-10-05T14:43:20.487Z,6.32
2022-10-05T14:45:55.953Z,5.72
2022-10-05T14:48:28.086Z,7.00
2022-10-05T14:51:03.550Z,7.10
2022-10-05T14:53:58.821Z,5.53
2022-10-05T14:57:16.160Z,7.65
2022-10-05T15:00:14.590Z,4.72
2022-10-05T15:05:59.383Z,6.68
2022-10-05T15:08:50.026Z,4.90
2022-10-05T15:11:55.596Z,4.43
2022-10-05T15:14:30.283Z,5.70
2022-10-05T15:17:12.471Z,4.32
2022-10-05T15:19:54.430Z,7.72
2022-10-05T15:23:00.574Z,5.30
2022-10-05T15:26:30.305Z,6.30
2022-10-05T15:29:30.296Z,6.85
2022-10-05T15:32:39.204Z,5.32
2022-10-05T15:35:37.645Z,6.32
2022-10-05T15:38:26.692Z,5.53
2022-10-05T15:41:05.270Z,7.18
2022-10-05T15:44:06.463Z,5.45
2022-10-05T15:46:57.242Z,9.23
2022-10-05T15:49:57.361Z,6.22
2022-10-05T15:53:12.153Z,4.85
2022-10-05T15:55:52.553Z,7.03
2022-10-05T15:58:41.558Z,5.35
2022-10-05T16:01:40.416Z,6.00
2022-10-05T16:04:32.012Z,4.97
2022-10-05T16:07:21.962Z,8.48
2022-10-05T16:10:24.101Z,6.32
2022-10-05T16:13:05.150Z,5.90
2022-10-05T16:15:49.271Z,5.15
2022-10-05T16:18:43.483Z,8.27
2022-10-05T16:22:01.690Z,6.13
2022-10-05T16:25:02.037Z,5.45
2022-10-05T16:28:05.845Z,4.40
2022-10-05T16:31:31.279Z,5.50
2022-10-05T16:34:46.960Z,6.68
2022-10-05T16:37:16.538Z,4.70
2022-10-05T16:40:14.482Z,6.43
2022-10-05T16:43:31.124Z,7.65
2022-10-05T16:46:40.315Z,7.43
2022-10-05T16:49:50.089Z,6.32
2022-10-05T16:52:23.838Z,7.88
2022-10-05T16:55:27.152Z,7.57
2022-10-05T16:57:57.880Z,8.73
2022-10-05T17:01:00.074Z,8.98
2022-10-05T17:04:21.102Z,10.27
2022-10-05T17:07:25.762Z,9.68
2022-10-05T17:10:31.306Z,11.63
2022-10-05T17:13:29.324Z,9.13
2022-10-05T17:16:41.536Z,7.70
2022-10-05T17:19:48.796Z,4.97
2022-10-05T17:22:54.042Z,6.22
2022-10-05T17:25:54.276Z,4.60
2022-10-05T17:28:39.556Z,4.80
2022-10-05T17:31:23.181Z,6.55
2022-10-05T17:34:18.832Z,5.75
2022-10-05T17:37:32.115Z,8.88
2022-10-05T17:39:59.674Z,10.32
2022-10-05T17:42:26.991Z,9.00
2022-10-05T17:45:20.553Z,9.68
2022-10-05T17:51:12.940Z,7.85
2022-10-05T17:59:46.121Z,10.27
2022-10-05T18:02:35.273Z,9.85
2022-10-05T18:05:21.165Z,10.48
2022-10-05T18:08:17.545Z,8.77
2022-10-05T18:11:12.878Z,9.40
2022-10-05T18:13:56.268Z,9.07
2022-10-05T18:17:12.003Z,11.73
2022-10-05T18:19:42.788Z,10.95
2022-10-05T18:22:19.381Z,11.23
2022-10-05T18:25:30.696Z,14.32
2022-10-05T18:28:19.202Z,12.75
2022-10-05T18:31:22.357Z,11.57
2022-10-05T18:33:52.230Z,14.30
2022-10-05T18:36:39.397Z,15.88
2022-10-05T18:39:37.203Z,17.40
2022-10-05T18:42:23.155Z,15.13
2022-10-05T18:44:55.077Z,14.00
2022-10-05T18:48:14.751Z,12.75
2022-10-05T18:51:04.659Z,14.20
2022-10-05T18:53:47.351Z,14.32
2022-10-05T18:56:41.270Z,13.93
2022-10-05T18:59:47.515Z,14.05
2022-10-05T19:02:40.664Z,18.27
2022-10-05T19:05:52.089Z,19.17
2022-10-05T19:09:00.033Z,14.02
2022-10-05T19:11:56.444Z,15.77
2022-10-05T19:14:41.622Z,17.15
2022-10-05T19:17:49.890Z,12.60
2022-10-05T19:21:06.018Z,13.70
2022-10-05T19:23:51.417Z,14.40
2022-10-05T19:26:52.867Z,12.18
2022-10-05T19:29:53.176Z,13.50
2022-10-05T19:32:44.960Z,11.63
2022-10-05T19:35:30.059Z,10.68
2022-10-05T19:38:52.680Z,9.23
2022-10-05T19:41:52.363Z,11.50
2022-10-05T19:45:19.026Z,13.15
2022-10-05T19:48:47.668Z,7.07
2022-10-05T19:51:30.597Z,10.20
2022-10-05T19:54:16.746Z,9.88
2022-10-05T19:57:02.274Z,9.30
2022-10-05T19:59:32.391Z,7.57
2022-10-05T20:02:00.217Z,11.70
2022-10-05T20:04:49.674Z,10.52
2022-10-05T20:07:25.983Z,9.93
2022-10-05T20:09:58.911Z,7.25
2022-10-05T20:12:52.573Z,10.10
2022-10-05T20:15:48.491Z,13.95
2022-10-05T20:19:02.489Z,9.65
2022-10-05T20:21:43.656Z,10.52
2022-10-05T20:24:19.548Z,9.20
2022-10-05T20:30:58.029Z,10.60
2022-10-05T20:33:29.587Z,9.02
2022-10-05T20:35:57.635Z,10.77
2022-10-05T20:38:26.168Z,12.35
2022-10-05T20:40:53.537Z,8.98
2022-10-05T20:45:47.829Z,8.88
2022-10-05T20:48:18.972Z,12.93
2022-10-05T20:50:48.925Z,12.23
2022-10-05T20:53:16.101Z,15.73
2022-10-05T20:55:43.616Z,10.40
2022-10-05T20:58:11.582Z,11.05
2022-10-05T21:00:57.421Z,15.23
2022-10-05T21:03:26.323Z,11.20
2022-10-05T21:05:56.383Z,12.35
2022-10-05T21:08:23.637Z,11.85
2022-10-05T21:10:50.855Z,27.95
2022-10-05T21:13:19.755Z,19.40
2022-10-05T21:15:50.240Z,20.35
2022-10-05T21:18:20.600Z,20.92
2022-10-05T21:20:47.964Z,20.38
2022-10-05T21:23:15.232Z,17.88
2022-10-05T21:25:42.559Z,20.52
2022-10-05T21:28:33.672Z,16.33
2022-10-05T21:31:01.237Z,15.93
2022-10-05T21:33:31.858Z,13.55
2022-10-05T21:36:00.057Z,13.55
2022-10-05T21:38:31.630Z,12.68
2022-10-05T21:40:59.013Z,23.58
2022-10-05T21:43:27.565Z,22.00
2022-10-05T21:45:56.587Z,24.92
2022-10-05T21:48:31.178Z,21.95
2022-10-05T21:51:00.300Z,15.85
2022-10-05T21:53:37.754Z,14.18
2022-10-05T21:56:11.484Z,11.90
2022-10-05T21:58:40.906Z,12.75
2022-10-05T22:01:08.758Z,13.70
2022-10-05T22:03:36.136Z,15.75
2022-10-05T22:06:04.321Z,13.82
2022-10-05T22:11:15.903Z,16.98
2022-10-05T22:13:51.164Z,14.27
2022-10-05T22:16:24.321Z,19.35
2022-10-05T22:18:53.719Z,23.15
2022-10-05T22:21:21.912Z,25.52
2022-10-05T22:23:52.270Z,22.05
2022-10-05T22:29:06.505Z,26.17
2022-10-05T22:31:33.801Z,28.30
2022-10-05T22:34:01.461Z,28.10
2022-10-05T22:36:34.050Z,28.77
2022-10-05T22:39:03.673Z,22.92
2022-10-05T22:41:30.857Z,25.08
2022-10-05T22:46:25.165Z,16.63
2022-10-05T22:48:52.375Z,12.32
2022-10-05T22:53:46.779Z,17.13
2022-10-05T22:56:17.390Z,12.68
2022-10-05T22:58:45.912Z,20.35
2022-10-05T23:01:17.395Z,17.45
2022-10-05T23:03:45.606Z,20.13
2022-10-05T23:06:17.851Z,16.27
2022-10-05T23:08:46.184Z,17.35
2022-10-05T23:11:22.004Z,16.15
2022-10-05T23:13:51.389Z,11.23
2022-10-05T23:16:23.003Z,12.30
2022-10-05T23:18:53.080Z,11.55
2022-10-05T23:21:23.328Z,11.68
2022-10-05T23:23:51.432Z,12.27
2022-10-05T23:26:23.882Z,9.27
2022-10-05T23:28:52.162Z,11.18
2022-10-05T23:31:23.308Z,12.68
2022-10-05T23:33:51.608Z,11.25
2022-10-05T23:36:25.721Z,13.57
2022-10-05T23:38:52.822Z,12.55
2022-10-05T23:41:20.840Z,14.57
2022-10-05T23:43:48.455Z,14.57
2022-10-05T23:46:19.872Z,23.10
2022-10-05T23:48:47.083Z,21.20
2022-10-05T23:51:15.650Z,20.35
2022-10-05T23:53:42.876Z,18.85
2022-10-05T23:58:37.169Z,9.82
